createdAt,value
2018-04-01T00:00:11.948Z,97.63
2018-04-01T00:01:20.017Z,98.48
2018-04-01T00:02:28.038Z,98.20
2018-04-01T00:03:36.062Z,98.29
2018-04-01T00:04:44.121Z,98.67
2018-04-01T00:05:52.216Z,98.48
2018-04-01T00:07:00.252Z,97.91
2018-04-01T00:08:08.303Z,98.48
2018-04-01T00:09:16.418Z,98.48
2018-04-01T00:10:24.475Z,97.91
2018-04-01T00:11:32.586Z,98.01
2018-04-01T00:12:40.628Z,97.63
2018-04-01T00:13:48.592Z,98.01
2018-04-01T00:14:56.640Z,98.86
2018-04-01T00:16:04.711Z,98.86
2018-04-01T00:17:12.808Z,98.39
2018-04-01T00:18:20.873Z,98.34
2018-04-01T00:19:28.900Z,98.06
2018-04-01T00:20:36.942Z,97.87
2018-04-01T00:21:45.053Z,98.82
2018-04-01T00:22:53.066Z,98.72
2018-04-01T00:24:01.122Z,98.91
2018-04-01T00:25:09.175Z,98.53
2018-04-01T00:26:17.276Z,97.77
2018-04-01T00:27:25.322Z,98.25
2018-04-01T00:28:33.335Z,98.15
2018-04-01T00:29:41.445Z,98.06
2018-04-01T00:30:49.509Z,97.96
2018-04-01T00:31:57.551Z,97.87
2018-04-01T00:33:05.578Z,98.15
2018-04-01T00:34:13.694Z,97.77
2018-04-01T00:35:21.697Z,97.49
2018-04-01T00:36:29.815Z,96.54
2018-04-01T00:37:38.385Z,97.49
2018-04-01T00:38:45.888Z,97.68
2018-04-01T00:39:53.926Z,97.77
2018-04-01T00:41:02.003Z,97.87
2018-04-01T00:42:10.069Z,97.87
2018-04-01T00:43:18.193Z,97.87
2018-04-01T00:44:26.218Z,98.53
2018-04-01T00:45:34.234Z,97.73
2018-04-01T00:46:42.274Z,97.54
2018-04-01T00:47:50.342Z,97.68
2018-04-01T00:48:58.399Z,97.25
2018-04-01T00:50:06.461Z,97.44
2018-04-01T00:51:14.519Z,96.50
2018-04-01T00:52:22.568Z,95.64
2018-04-01T00:53:30.676Z,96.21
2018-04-01T00:54:38.766Z,95.07
2018-04-01T00:55:46.779Z,94.60
2018-04-01T00:56:54.861Z,95.26
2018-04-01T00:58:02.931Z,94.89
2018-04-01T00:59:10.953Z,96.12
2018-04-01T01:00:18.992Z,96.40
2018-04-01T01:01:27.083Z,96.69
2018-04-01T01:02:35.097Z,96.21
2018-04-01T01:03:43.208Z,96.50
2018-04-01T01:04:51.244Z,96.88
2018-04-01T01:05:59.328Z,96.59
2018-04-01T01:07:07.358Z,97.35
2018-04-01T01:08:15.393Z,97.54
2018-04-01T01:09:23.457Z,97.06
2018-04-01T01:10:31.527Z,96.69
2018-04-01T01:11:39.634Z,96.59
2018-04-01T01:12:47.668Z,97.44
2018-04-01T01:13:55.758Z,96.59
2018-04-01T01:15:03.826Z,96.59
2018-04-01T01:16:11.794Z,96.21
2018-04-01T01:17:19.862Z,96.59
2018-04-01T01:18:27.925Z,96.40
2018-04-01T01:19:35.975Z,96.88
2018-04-01T01:20:44.105Z,97.54
2018-04-01T01:21:52.188Z,97.44
2018-04-01T01:23:00.205Z,97.06
2018-04-01T01:24:08.261Z,97.16
2018-04-01T01:25:16.310Z,96.21
2018-04-01T01:26:24.355Z,96.50
2018-04-01T01:27:32.400Z,96.31
2018-04-01T01:28:40.448Z,96.50
2018-04-01T01:29:48.507Z,97.06
2018-04-01T01:30:56.578Z,97.35
2018-04-01T01:32:04.654Z,97.44
2018-04-01T01:33:12.676Z,97.63
2018-04-01T01:34:20.781Z,97.54
2018-04-01T01:35:28.854Z,97.25
2018-04-01T01:36:36.910Z,97.16
2018-04-01T01:37:44.991Z,97.25
2018-04-01T01:38:52.994Z,96.59
2018-04-01T01:40:01.046Z,96.59
2018-04-01T01:41:09.085Z,96.88
2018-04-01T01:42:17.172Z,96.69
2018-04-01T01:43:25.206Z,96.78
2018-04-01T01:44:33.276Z,97.44
2018-04-01T01:45:41.360Z,97.35
2018-04-01T01:46:49.424Z,97.16
2018-04-01T01:47:57.522Z,97.92
2018-04-01T01:49:05.582Z,97.82
2018-04-01T01:50:13.580Z,97.87
2018-04-01T01:51:21.650Z,97.68
2018-04-01T01:52:29.680Z,97.92
2018-04-01T01:53:37.755Z,97.63
2018-04-01T01:54:45.811Z,97.96
2018-04-01T01:55:53.864Z,98.06
2018-04-01T01:57:01.956Z,97.96
2018-04-01T01:58:10.061Z,97.87
2018-04-01T01:59:18.149Z,97.30
2018-04-01T02:00:26.157Z,97.44
2018-04-01T02:01:34.235Z,97.58
2018-04-01T02:02:42.284Z,96.64
2018-04-01T02:03:50.266Z,97.68
2018-04-01T02:04:58.391Z,97.30
2018-04-01T02:06:06.396Z,97.49
2018-04-01T02:07:14.512Z,97.30
2018-04-01T02:08:22.536Z,97.39
2018-04-01T02:09:30.661Z,97.49
2018-04-01T02:10:38.659Z,97.49
2018-04-01T02:11:46.709Z,97.49
2018-04-01T02:12:54.843Z,96.64
2018-04-01T02:14:02.804Z,96.45
2018-04-01T02:15:10.901Z,96.45
2018-04-01T02:16:18.993Z,96.54
2018-04-01T02:17:27.046Z,96.64
2018-04-01T02:18:35.102Z,97.30
2018-04-01T02:19:43.103Z,97.20
2018-04-01T02:20:51.154Z,97.49
2018-04-01T02:21:59.228Z,97.49
2018-04-01T02:23:07.314Z,97.20
2018-04-01T02:24:15.406Z,97.96
2018-04-01T02:25:23.414Z,98.34
2018-04-01T02:26:31.519Z,98.72
2018-04-01T02:27:39.544Z,98.91
2018-04-01T02:28:47.568Z,99.38
2018-04-01T02:29:55.709Z,99.48
2018-04-01T02:31:03.748Z,99.57
2018-04-01T02:32:11.809Z,99.99
2018-04-01T02:33:19.819Z,99.99
2018-04-01T02:34:27.866Z,99.99
2018-04-01T02:35:35.928Z,99.99
2018-04-01T02:36:43.991Z,99.99
2018-04-01T02:37:52.053Z,99.99
2018-04-01T02:39:00.129Z,99.99
2018-04-01T02:40:08.201Z,99.99
2018-04-01T02:41:16.272Z,99.99
2018-04-01T02:42:24.300Z,99.99
2018-04-01T02:43:32.336Z,99.99
2018-04-01T02:44:40.399Z,99.99
2018-04-01T02:45:48.441Z,99.99
2018-04-01T02:46:56.516Z,99.99
2018-04-01T02:48:04.570Z,99.85
2018-04-01T02:49:12.645Z,99.95
2018-04-01T02:50:20.683Z,99.99
2018-04-01T02:51:28.773Z,99.99
2018-04-01T02:52:36.837Z,99.99
2018-04-01T02:53:44.905Z,99.99
2018-04-01T02:54:52.954Z,99.76
2018-04-01T02:56:00.999Z,99.38
2018-04-01T02:57:09.081Z,99.76
2018-04-01T02:58:17.155Z,99.48
2018-04-01T02:59:25.172Z,99.66
2018-04-01T03:00:33.211Z,99.38
2018-04-01T03:01:41.272Z,99.76
2018-04-01T03:02:49.341Z,99.38
2018-04-01T03:03:57.387Z,98.34
2018-04-01T03:05:05.493Z,99.10
2018-04-01T03:06:13.500Z,99.48
2018-04-01T03:07:21.610Z,99.48
2018-04-01T03:08:29.694Z,99.38
2018-04-01T03:09:37.752Z,99.38
2018-04-01T03:10:45.782Z,99.48
2018-04-01T03:11:53.819Z,99.48
2018-04-01T03:13:02.006Z,99.10
2018-04-01T03:14:09.911Z,98.72
2018-04-01T03:15:17.980Z,98.82
2018-04-01T03:16:26.035Z,98.72
2018-04-01T03:17:34.098Z,98.53
2018-04-01T03:18:42.137Z,98.72
2018-04-01T03:19:50.222Z,98.72
2018-04-01T03:20:58.285Z,98.72
2018-04-01T03:22:06.372Z,98.63
2018-04-01T03:23:14.422Z,98.82
2018-04-01T03:24:22.476Z,98.53
2018-04-01T03:25:30.541Z,98.91
2018-04-01T03:26:38.603Z,99.29
2018-04-01T03:27:46.630Z,99.48
2018-04-01T03:28:54.683Z,99.10
2018-04-01T03:30:02.782Z,98.82
2018-04-01T03:31:10.805Z,98.82
2018-04-01T03:32:18.921Z,98.72
2018-04-01T03:33:27.010Z,98.82
2018-04-01T03:34:35.074Z,98.72
2018-04-01T03:35:43.038Z,99.01
2018-04-01T03:36:51.088Z,98.91
2018-04-01T03:37:59.174Z,98.72
2018-04-01T03:39:07.202Z,98.91
2018-04-01T03:40:15.274Z,98.82
2018-04-01T03:41:23.347Z,98.91
2018-04-01T03:42:31.567Z,98.72
2018-04-01T03:43:39.473Z,98.63
2018-04-01T03:44:47.509Z,98.53
2018-04-01T03:45:55.569Z,98.63
2018-04-01T03:47:03.603Z,98.82
2018-04-01T03:48:11.734Z,98.53
2018-04-01T03:49:19.736Z,98.06
2018-04-01T03:50:27.828Z,98.44
2018-04-01T03:51:35.865Z,98.44
2018-04-01T03:52:43.938Z,97.77
2018-04-01T03:53:52.028Z,98.72
2018-04-01T03:55:00.057Z,97.77
2018-04-01T03:56:08.148Z,98.34
2018-04-01T03:57:16.212Z,98.72
2018-04-01T03:58:24.313Z,98.72
2018-04-01T03:59:32.269Z,98.53
2018-04-01T04:00:40.378Z,98.82
2018-04-01T04:01:48.404Z,98.06
2018-04-01T04:02:56.486Z,97.58
2018-04-01T04:04:04.563Z,98.01
2018-04-01T04:05:12.611Z,97.82
2018-04-01T04:06:20.690Z,97.35
2018-04-01T04:07:28.760Z,97.44
2018-04-01T04:08:36.831Z,97.35
2018-04-01T04:09:44.874Z,97.44
2018-04-01T04:10:52.969Z,97.35
2018-04-01T04:12:01.100Z,97.25
2018-04-01T04:13:08.999Z,97.54
2018-04-01T04:14:17.028Z,97.63
2018-04-01T04:15:25.095Z,97.73
2018-04-01T04:16:33.159Z,97.44
2018-04-01T04:17:41.208Z,97.54
2018-04-01T04:18:49.303Z,97.54
2018-04-01T04:19:57.339Z,97.44
2018-04-01T04:21:05.422Z,97.54
2018-04-01T04:22:13.506Z,97.06
2018-04-01T04:23:21.555Z,97.44
2018-04-01T04:24:29.569Z,97.25
2018-04-01T04:25:37.667Z,97.25
2018-04-01T04:26:45.721Z,96.69
2018-04-01T04:27:53.817Z,96.31
2018-04-01T04:29:01.938Z,95.45
2018-04-01T04:30:10.004Z,95.17
2018-04-01T04:31:18.039Z,95.45
2018-04-01T04:32:26.086Z,94.98
2018-04-01T04:33:34.140Z,94.13
2018-04-01T04:34:42.198Z,93.46
2018-04-01T04:35:50.385Z,94.13
2018-04-01T04:36:58.316Z,94.13
2018-04-01T04:38:06.371Z,94.70
2018-04-01T04:39:14.430Z,94.79
2018-04-01T04:40:22.534Z,94.79
2018-04-01T04:41:30.622Z,94.60
2018-04-01T04:42:38.657Z,95.36
2018-04-01T04:43:46.694Z,95.36
2018-04-01T04:44:54.788Z,95.17
2018-04-01T04:46:02.859Z,95.17
2018-04-01T04:47:10.912Z,94.23
2018-04-01T04:48:18.961Z,94.32
2018-04-01T04:49:26.981Z,94.74
2018-04-01T04:50:35.064Z,94.13
2018-04-01T04:51:43.084Z,94.32
2018-04-01T04:52:51.155Z,94.98
2018-04-01T04:53:59.226Z,94.23
2018-04-01T04:55:07.314Z,93.37
2018-04-01T04:56:15.324Z,93.37
2018-04-01T04:57:23.401Z,93.94
2018-04-01T04:58:31.448Z,94.70
2018-04-01T04:59:39.512Z,94.23
2018-04-01T05:00:47.565Z,93.75
2018-04-01T05:01:55.641Z,93.27
2018-04-01T05:03:03.870Z,93.94
2018-04-01T05:04:11.808Z,93.42
2018-04-01T05:05:19.793Z,93.99
2018-04-01T05:06:27.877Z,92.99
2018-04-01T05:07:35.921Z,91.76
2018-04-01T05:08:43.967Z,92.24
2018-04-01T05:09:52.103Z,92.19
2018-04-01T05:11:00.769Z,92.66
2018-04-01T05:15:04.783Z,94.08
2018-04-01T05:16:12.872Z,93.46
2018-04-01T05:17:21.297Z,93.08
2018-04-01T05:18:30.771Z,93.46
2018-04-01T05:19:36.980Z,93.08
2018-04-01T05:20:45.110Z,93.27
2018-04-01T05:21:53.236Z,93.08
2018-04-01T05:23:04.408Z,91.86
2018-04-01T05:24:12.532Z,90.67
2018-04-01T05:26:28.662Z,91.33
2018-04-01T05:27:36.671Z,91.10
2018-04-01T05:28:48.336Z,92.05
2018-04-01T05:29:52.834Z,91.76
2018-04-01T05:31:00.837Z,92.09
2018-04-01T05:32:08.932Z,93.04
2018-04-01T05:33:16.941Z,93.37
2018-04-01T05:34:25.016Z,93.65
2018-04-01T05:35:33.075Z,93.56
2018-04-01T05:36:41.126Z,92.43
2018-04-01T05:37:49.203Z,93.32
2018-04-01T05:38:57.294Z,93.75
2018-04-01T05:40:05.336Z,93.94
2018-04-01T05:41:13.430Z,94.04
2018-04-01T05:42:21.426Z,93.27
2018-04-01T05:43:29.494Z,93.37
2018-04-01T05:44:37.544Z,93.75
2018-04-01T05:45:45.644Z,94.13
2018-04-01T05:46:53.700Z,93.42
2018-04-01T05:48:01.810Z,93.75
2018-04-01T05:49:09.834Z,92.90
2018-04-01T05:50:17.856Z,93.46
2018-04-01T05:51:25.899Z,93.23
2018-04-01T05:52:34.002Z,93.13
2018-04-01T05:53:42.062Z,93.99
2018-04-01T05:54:50.154Z,94.04
2018-04-01T05:57:06.930Z,94.18
2018-04-01T05:58:14.977Z,93.99
2018-04-01T05:59:23.029Z,93.61
2018-04-01T06:00:31.105Z,93.32
2018-04-01T06:01:39.166Z,93.04
2018-04-01T06:02:47.286Z,92.85
2018-04-01T06:03:55.322Z,93.32
2018-04-01T06:05:03.514Z,93.04
2018-04-01T06:06:11.490Z,92.47
2018-04-01T06:07:19.470Z,93.04
2018-04-01T06:08:27.517Z,93.70
2018-04-01T06:09:35.584Z,93.23
2018-04-01T06:10:43.708Z,93.32
2018-04-01T06:11:51.735Z,92.94
2018-04-01T06:13:00.054Z,92.94
2018-04-01T06:14:07.824Z,93.32
2018-04-01T06:15:15.892Z,92.28
2018-04-01T06:16:24.024Z,91.90
2018-04-01T06:17:32.020Z,92.00
